sensor_id;sensor_type;location;lat;lon;timestamp;P1;durP1;ratioP1;P2;durP2;ratioP2
45792;SDS011;31495;42.740;22.908;2023-07-20T00:00:46;3.83;;;1.48;;
45792;SDS011;31495;42.740;22.908;2023-07-20T00:01:45;7.75;;;1.50;;
45792;SDS011;31495;42.740;22.908;2023-07-20T00:02:45;6.60;;;2.22;;
45792;SDS011;31495;42.740;22.908;2023-07-20T00:03:45;5.50;;;1.65;;
45792;SDS011;31495;42.740;22.908;2023-07-20T00:04:54;7.45;;;1.60;;
45792;SDS011;31495;42.740;22.908;2023-07-20T00:05:53;6.85;;;1.55;;
45792;SDS011;31495;42.740;22.908;2023-07-20T00:06:53;2.35;;;0.80;;
45792;SDS011;31495;42.740;22.908;2023-07-20T00:07:52;5.85;;;1.48;;
45792;SDS011;31495;42.740;22.908;2023-07-20T00:08:51;4.75;;;1.52;;
45792;SDS011;31495;42.740;22.908;2023-07-20T00:09:51;4.13;;;1.52;;
45792;SDS011;31495;42.740;22.908;2023-07-20T00:10:50;4.57;;;1.23;;
45792;SDS011;31495;42.740;22.908;2023-07-20T00:11:50;5.18;;;1.10;;
45792;SDS011;31495;42.740;22.908;2023-07-20T00:12:50;3.22;;;1.35;;
45792;SDS011;31495;42.740;22.908;2023-07-20T00:13:50;4.47;;;1.52;;
45792;SDS011;31495;42.740;22.908;2023-07-20T00:14:49;6.65;;;1.90;;
45792;SDS011;31495;42.740;22.908;2023-07-20T00:15:52;5.07;;;1.20;;
45792;SDS011;31495;42.740;22.908;2023-07-20T00:16:52;5.03;;;1.35;;
45792;SDS011;31495;42.740;22.908;2023-07-20T00:17:54;3.90;;;1.25;;
45792;SDS011;31495;42.740;22.908;2023-07-20T00:18:54;6.68;;;1.58;;
45792;SDS011;31495;42.740;22.908;2023-07-20T00:19:53;5.55;;;1.65;;
45792;SDS011;31495;42.740;22.908;2023-07-20T00:20:53;5.00;;;1.73;;
45792;SDS011;31495;42.740;22.908;2023-07-20T00:21:52;6.50;;;1.65;;
45792;SDS011;31495;42.740;22.908;2023-07-20T00:22:53;6.18;;;1.77;;
45792;SDS011;31495;42.740;22.908;2023-07-20T00:23:54;5.30;;;1.45;;
45792;SDS011;31495;42.740;22.908;2023-07-20T00:24:53;6.35;;;1.65;;
45792;SDS011;31495;42.740;22.908;2023-07-20T00:25:53;9.55;;;1.40;;
45792;SDS011;31495;42.740;22.908;2023-07-20T00:26:53;5.00;;;1.50;;
45792;SDS011;31495;42.740;22.908;2023-07-20T00:27:52;4.82;;;1.98;;
45792;SDS011;31495;42.740;22.908;2023-07-20T00:28:51;6.20;;;1.38;;
45792;SDS011;31495;42.740;22.908;2023-07-20T00:29:51;5.90;;;1.40;;
45792;SDS011;31495;42.740;22.908;2023-07-20T00:30:50;4.10;;;1.40;;
45792;SDS011;31495;42.740;22.908;2023-07-20T00:31:50;5.35;;;1.55;;
45792;SDS011;31495;42.740;22.908;2023-07-20T00:32:49;7.82;;;1.60;;
45792;SDS011;31495;42.740;22.908;2023-07-20T00:33:49;4.95;;;1.67;;
45792;SDS011;31495;42.740;22.908;2023-07-20T00:34:48;6.80;;;1.63;;
45792;SDS011;31495;42.740;22.908;2023-07-20T00:35:48;7.38;;;2.47;;
45792;SDS011;31495;42.740;22.908;2023-07-20T00:36:47;7.45;;;2.00;;
45792;SDS011;31495;42.740;22.908;2023-07-20T00:37:48;8.68;;;1.80;;
45792;SDS011;31495;42.740;22.908;2023-07-20T00:38:47;4.03;;;1.25;;
45792;SDS011;31495;42.740;22.908;2023-07-20T00:39:46;8.23;;;2.08;;
45792;SDS011;31495;42.740;22.908;2023-07-20T00:40:46;8.18;;;2.30;;
45792;SDS011;31495;42.740;22.908;2023-07-20T00:41:45;7.15;;;1.20;;
45792;SDS011;31495;42.740;22.908;2023-07-20T00:42:45;4.22;;;1.48;;
45792;SDS011;31495;42.740;22.908;2023-07-20T00:43:44;8.70;;;1.90;;
45792;SDS011;31495;42.740;22.908;2023-07-20T00:44:44;9.05;;;2.00;;
45792;SDS011;31495;42.740;22.908;2023-07-20T00:45:43;10.13;;;1.90;;
45792;SDS011;31495;42.740;22.908;2023-07-20T00:46:43;7.30;;;1.98;;
45792;SDS011;31495;42.740;22.908;2023-07-20T00:47:43;4.55;;;1.55;;
45792;SDS011;31495;42.740;22.908;2023-07-20T00:48:43;6.97;;;1.60;;
45792;SDS011;31495;42.740;22.908;2023-07-20T00:49:43;8.05;;;1.50;;
45792;SDS011;31495;42.740;22.908;2023-07-20T00:50:43;4.90;;;1.33;;
45792;SDS011;31495;42.740;22.908;2023-07-20T00:51:44;6.65;;;1.55;;
45792;SDS011;31495;42.740;22.908;2023-07-20T00:52:44;6.38;;;1.92;;
45792;SDS011;31495;42.740;22.908;2023-07-20T00:53:44;6.70;;;1.75;;
45792;SDS011;31495;42.740;22.908;2023-07-20T00:54:43;5.35;;;1.58;;
45792;SDS011;31495;42.740;22.908;2023-07-20T00:55:43;7.93;;;2.00;;
45792;SDS011;31495;42.740;22.908;2023-07-20T00:56:43;8.85;;;1.75;;
45792;SDS011;31495;42.740;22.908;2023-07-20T00:57:43;5.85;;;1.30;;
45792;SDS011;31495;42.740;22.908;2023-07-20T00:58:43;5.72;;;1.50;;
45792;SDS011;31495;42.740;22.908;2023-07-20T00:59:43;8.85;;;1.38;;
45792;SDS011;31495;42.740;22.908;2023-07-20T01:00:44;2.85;;;1.15;;
45792;SDS011;31495;42.740;22.908;2023-07-20T01:01:43;4.80;;;1.48;;
45792;SDS011;31495;42.740;22.908;2023-07-20T01:02:44;7.82;;;1.75;;
45792;SDS011;31495;42.740;22.908;2023-07-20T01:03:43;7.85;;;1.23;;
45792;SDS011;31495;42.740;22.908;2023-07-20T01:04:43;4.68;;;1.27;;
45792;SDS011;31495;42.740;22.908;2023-07-20T01:05:48;6.10;;;1.40;;
45792;SDS011;31495;42.740;22.908;2023-07-20T01:07:11;7.53;;;2.75;;
45792;SDS011;31495;42.740;22.908;2023-07-20T01:08:33;4.50;;;1.42;;
45792;SDS011;31495;42.740;22.908;2023-07-20T01:09:42;5.82;;;1.67;;
45792;SDS011;31495;42.740;22.908;2023-07-20T01:10:50;10.05;;;2.58;;
45792;SDS011;31495;42.740;22.908;2023-07-20T01:13:22;6.55;;;1.65;;
45792;SDS011;31495;42.740;22.908;2023-07-20T01:14:23;7.18;;;1.55;;
45792;SDS011;31495;42.740;22.908;2023-07-20T01:15:24;5.40;;;1.50;;
45792;SDS011;31495;42.740;22.908;2023-07-20T01:16:24;11.88;;;3.20;;
45792;SDS011;31495;42.740;22.908;2023-07-20T01:17:23;8.25;;;1.92;;
45792;SDS011;31495;42.740;22.908;2023-07-20T01:18:23;3.40;;;1.50;;
45792;SDS011;31495;42.740;22.908;2023-07-20T01:19:23;7.30;;;2.22;;
45792;SDS011;31495;42.740;22.908;2023-07-20T01:20:22;7.10;;;1.83;;
45792;SDS011;31495;42.740;22.908;2023-07-20T01:21:28;7.68;;;1.77;;
45792;SDS011;31495;42.740;22.908;2023-07-20T01:25:58;4.50;;;1.55;;
45792;SDS011;31495;42.740;22.908;2023-07-20T01:31:26;4.07;;;1.60;;
45792;SDS011;31495;42.740;22.908;2023-07-20T01:32:29;4.20;;;1.45;;
45792;SDS011;31495;42.740;22.908;2023-07-20T01:34:32;8.83;;;1.87;;
45792;SDS011;31495;42.740;22.908;2023-07-20T01:35:34;7.10;;;1.95;;
45792;SDS011;31495;42.740;22.908;2023-07-20T01:36:36;6.70;;;2.00;;
45792;SDS011;31495;42.740;22.908;2023-07-20T01:37:37;3.60;;;1.58;;
45792;SDS011;31495;42.740;22.908;2023-07-20T01:38:37;5.50;;;1.70;;
45792;SDS011;31495;42.740;22.908;2023-07-20T01:39:37;5.40;;;1.58;;
45792;SDS011;31495;42.740;22.908;2023-07-20T01:40:38;8.73;;;1.88;;
45792;SDS011;31495;42.740;22.908;2023-07-20T01:41:38;11.02;;;2.38;;
45792;SDS011;31495;42.740;22.908;2023-07-20T01:42:37;12.43;;;2.20;;
45792;SDS011;31495;42.740;22.908;2023-07-20T01:43:37;7.13;;;1.60;;
45792;SDS011;31495;42.740;22.908;2023-07-20T01:44:37;6.38;;;1.60;;
45792;SDS011;31495;42.740;22.908;2023-07-20T01:45:37;8.93;;;1.73;;
45792;SDS011;31495;42.740;22.908;2023-07-20T01:46:37;7.82;;;1.70;;
45792;SDS011;31495;42.740;22.908;2023-07-20T01:47:37;11.95;;;2.65;;
45792;SDS011;31495;42.740;22.908;2023-07-20T01:48:36;7.97;;;1.52;;
45792;SDS011;31495;42.740;22.908;2023-07-20T01:49:35;3.47;;;1.42;;
45792;SDS011;31495;42.740;22.908;2023-07-20T01:50:35;9.63;;;1.77;;
45792;SDS011;31495;42.740;22.908;2023-07-20T01:51:35;4.07;;;1.70;;
45792;SDS011;31495;42.740;22.908;2023-07-20T01:52:34;12.23;;;2.17;;
45792;SDS011;31495;42.740;22.908;2023-07-20T01:53:34;6.10;;;2.05;;
45792;SDS011;31495;42.740;22.908;2023-07-20T01:54:33;7.80;;;1.50;;
45792;SDS011;31495;42.740;22.908;2023-07-20T01:55:33;7.53;;;1.80;;
45792;SDS011;31495;42.740;22.908;2023-07-20T01:56:32;8.50;;;2.75;;
45792;SDS011;31495;42.740;22.908;2023-07-20T01:57:32;3.58;;;1.25;;
45792;SDS011;31495;42.740;22.908;2023-07-20T01:58:31;6.85;;;2.17;;
45792;SDS011;31495;42.740;22.908;2023-07-20T01:59:31;3.80;;;1.83;;
45792;SDS011;31495;42.740;22.908;2023-07-20T02:00:30;8.85;;;1.60;;
45792;SDS011;31495;42.740;22.908;2023-07-20T02:01:30;6.05;;;1.58;;
45792;SDS011;31495;42.740;22.908;2023-07-20T02:02:29;7.68;;;1.85;;
45792;SDS011;31495;42.740;22.908;2023-07-20T02:03:29;5.75;;;1.50;;
45792;SDS011;31495;42.740;22.908;2023-07-20T02:04:28;6.53;;;1.67;;
45792;SDS011;31495;42.740;22.908;2023-07-20T02:05:27;6.20;;;1.98;;
45792;SDS011;31495;42.740;22.908;2023-07-20T02:06:28;4.63;;;1.45;;
45792;SDS011;31495;42.740;22.908;2023-07-20T02:07:27;3.22;;;1.90;;
45792;SDS011;31495;42.740;22.908;2023-07-20T02:08:27;4.40;;;1.70;;
45792;SDS011;31495;42.740;22.908;2023-07-20T02:09:26;7.40;;;1.65;;
45792;SDS011;31495;42.740;22.908;2023-07-20T02:10:25;3.20;;;1.70;;
45792;SDS011;31495;42.740;22.908;2023-07-20T02:11:25;4.38;;;1.55;;
45792;SDS011;31495;42.740;22.908;2023-07-20T02:12:24;5.95;;;2.38;;
45792;SDS011;31495;42.740;22.908;2023-07-20T02:13:24;5.72;;;2.13;;
45792;SDS011;31495;42.740;22.908;2023-07-20T02:14:23;6.82;;;2.10;;
45792;SDS011;31495;42.740;22.908;2023-07-20T02:15:22;7.60;;;1.80;;
45792;SDS011;31495;42.740;22.908;2023-07-20T02:16:22;4.53;;;1.98;;
45792;SDS011;31495;42.740;22.908;2023-07-20T02:17:21;6.70;;;1.88;;
45792;SDS011;31495;42.740;22.908;2023-07-20T02:18:21;7.15;;;1.52;;
45792;SDS011;31495;42.740;22.908;2023-07-20T02:19:20;4.68;;;1.58;;
45792;SDS011;31495;42.740;22.908;2023-07-20T02:20:20;7.53;;;2.45;;
45792;SDS011;31495;42.740;22.908;2023-07-20T02:21:20;4.95;;;1.40;;
45792;SDS011;31495;42.740;22.908;2023-07-20T02:22:19;6.30;;;2.45;;
45792;SDS011;31495;42.740;22.908;2023-07-20T02:23:20;6.05;;;1.77;;
45792;SDS011;31495;42.740;22.908;2023-07-20T02:24:19;6.45;;;2.30;;
45792;SDS011;31495;42.740;22.908;2023-07-20T02:25:19;3.50;;;1.67;;
45792;SDS011;31495;42.740;22.908;2023-07-20T02:26:18;10.32;;;2.20;;
45792;SDS011;31495;42.740;22.908;2023-07-20T02:27:18;4.65;;;2.15;;
45792;SDS011;31495;42.740;22.908;2023-07-20T02:28:17;7.10;;;1.88;;
45792;SDS011;31495;42.740;22.908;2023-07-20T02:29:16;8.00;;;2.20;;
45792;SDS011;31495;42.740;22.908;2023-07-20T02:30:16;8.10;;;1.60;;
45792;SDS011;31495;42.740;22.908;2023-07-20T02:31:16;5.55;;;2.25;;
45792;SDS011;31495;42.740;22.908;2023-07-20T02:32:16;7.18;;;2.30;;
45792;SDS011;31495;42.740;22.908;2023-07-20T02:33:15;7.53;;;2.05;;
45792;SDS011;31495;42.740;22.908;2023-07-20T02:34:14;8.95;;;2.20;;
45792;SDS011;31495;42.740;22.908;2023-07-20T02:35:14;7.72;;;2.17;;
45792;SDS011;31495;42.740;22.908;2023-07-20T02:36:14;7.47;;;2.40;;
45792;SDS011;31495;42.740;22.908;2023-07-20T02:37:16;10.35;;;2.45;;
45792;SDS011;31495;42.740;22.908;2023-07-20T02:38:16;6.18;;;1.77;;
45792;SDS011;31495;42.740;22.908;2023-07-20T02:39:15;6.80;;;2.35;;
45792;SDS011;31495;42.740;22.908;2023-07-20T02:40:15;6.35;;;1.90;;
45792;SDS011;31495;42.740;22.908;2023-07-20T02:41:14;8.75;;;3.25;;
45792;SDS011;31495;42.740;22.908;2023-07-20T02:42:14;9.50;;;2.80;;
45792;SDS011;31495;42.740;22.908;2023-07-20T02:43:13;6.82;;;1.95;;
45792;SDS011;31495;42.740;22.908;2023-07-20T02:44:13;9.50;;;2.35;;
45792;SDS011;31495;42.740;22.908;2023-07-20T02:45:13;8.70;;;2.35;;
45792;SDS011;31495;42.740;22.908;2023-07-20T02:46:13;5.45;;;1.98;;
45792;SDS011;31495;42.740;22.908;2023-07-20T02:47:12;6.45;;;3.05;;
45792;SDS011;31495;42.740;22.908;2023-07-20T02:48:11;12.68;;;2.28;;
45792;SDS011;31495;42.740;22.908;2023-07-20T02:49:11;11.00;;;1.65;;
45792;SDS011;31495;42.740;22.908;2023-07-20T02:50:10;6.05;;;1.58;;
45792;SDS011;31495;42.740;22.908;2023-07-20T02:51:12;8.93;;;2.53;;
45792;SDS011;31495;42.740;22.908;2023-07-20T02:52:12;4.57;;;2.42;;
45792;SDS011;31495;42.740;22.908;2023-07-20T02:53:11;9.27;;;2.58;;
45792;SDS011;31495;42.740;22.908;2023-07-20T02:54:11;4.68;;;1.35;;
45792;SDS011;31495;42.740;22.908;2023-07-20T02:55:11;10.10;;;1.90;;
45792;SDS011;31495;42.740;22.908;2023-07-20T02:56:11;17.35;;;2.42;;
45792;SDS011;31495;42.740;22.908;2023-07-20T02:57:10;8.52;;;2.53;;
45792;SDS011;31495;42.740;22.908;2023-07-20T02:58:10;3.50;;;1.98;;
45792;SDS011;31495;42.740;22.908;2023-07-20T02:59:09;6.68;;;2.08;;
45792;SDS011;31495;42.740;22.908;2023-07-20T03:00:08;5.18;;;1.67;;
45792;SDS011;31495;42.740;22.908;2023-07-20T03:01:09;5.35;;;1.98;;
45792;SDS011;31495;42.740;22.908;2023-07-20T03:02:12;8.88;;;2.10;;
45792;SDS011;31495;42.740;22.908;2023-07-20T03:03:11;6.35;;;1.67;;
45792;SDS011;31495;42.740;22.908;2023-07-20T03:04:11;8.13;;;1.73;;
45792;SDS011;31495;42.740;22.908;2023-07-20T03:05:10;3.65;;;1.65;;
45792;SDS011;31495;42.740;22.908;2023-07-20T03:06:10;3.75;;;1.80;;
45792;SDS011;31495;42.740;22.908;2023-07-20T03:07:09;4.75;;;1.58;;
45792;SDS011;31495;42.740;22.908;2023-07-20T03:08:09;7.03;;;1.98;;
45792;SDS011;31495;42.740;22.908;2023-07-20T03:09:08;4.63;;;1.70;;
45792;SDS011;31495;42.740;22.908;2023-07-20T03:10:08;3.35;;;1.90;;
45792;SDS011;31495;42.740;22.908;2023-07-20T03:11:08;6.95;;;2.20;;
45792;SDS011;31495;42.740;22.908;2023-07-20T03:12:07;7.75;;;2.55;;
45792;SDS011;31495;42.740;22.908;2023-07-20T03:13:07;6.45;;;2.08;;
45792;SDS011;31495;42.740;22.908;2023-07-20T03:14:07;5.47;;;1.67;;
45792;SDS011;31495;42.740;22.908;2023-07-20T03:15:06;7.68;;;2.83;;
45792;SDS011;31495;42.740;22.908;2023-07-20T03:16:07;5.68;;;1.90;;
45792;SDS011;31495;42.740;22.908;2023-07-20T03:17:10;8.38;;;2.17;;
45792;SDS011;31495;42.740;22.908;2023-07-20T03:18:09;11.45;;;2.28;;
45792;SDS011;31495;42.740;22.908;2023-07-20T03:19:09;3.08;;;1.30;;
45792;SDS011;31495;42.740;22.908;2023-07-20T03:20:08;4.18;;;1.88;;
45792;SDS011;31495;42.740;22.908;2023-07-20T03:21:09;7.88;;;2.90;;
45792;SDS011;31495;42.740;22.908;2023-07-20T03:22:13;5.00;;;1.60;;
45792;SDS011;31495;42.740;22.908;2023-07-20T03:23:12;11.63;;;3.53;;
45792;SDS011;31495;42.740;22.908;2023-07-20T03:24:11;5.78;;;2.25;;
45792;SDS011;31495;42.740;22.908;2023-07-20T03:25:11;8.65;;;2.45;;
45792;SDS011;31495;42.740;22.908;2023-07-20T03:26:11;9.50;;;2.47;;
45792;SDS011;31495;42.740;22.908;2023-07-20T03:27:10;8.52;;;2.05;;
45792;SDS011;31495;42.740;22.908;2023-07-20T03:28:10;8.52;;;2.38;;
45792;SDS011;31495;42.740;22.908;2023-07-20T03:29:09;8.32;;;2.60;;
45792;SDS011;31495;42.740;22.908;2023-07-20T03:30:08;4.10;;;1.55;;
45792;SDS011;31495;42.740;22.908;2023-07-20T03:31:08;7.18;;;2.05;;
45792;SDS011;31495;42.740;22.908;2023-07-20T03:32:08;8.38;;;2.20;;
45792;SDS011;31495;42.740;22.908;2023-07-20T03:33:08;8.07;;;2.40;;
45792;SDS011;31495;42.740;22.908;2023-07-20T03:34:08;5.75;;;2.42;;
45792;SDS011;31495;42.740;22.908;2023-07-20T03:35:08;4.63;;;1.60;;
45792;SDS011;31495;42.740;22.908;2023-07-20T03:36:08;4.32;;;1.95;;
45792;SDS011;31495;42.740;22.908;2023-07-20T03:37:09;10.73;;;2.22;;
45792;SDS011;31495;42.740;22.908;2023-07-20T03:38:08;8.48;;;2.15;;
45792;SDS011;31495;42.740;22.908;2023-07-20T03:39:08;10.68;;;2.33;;
45792;SDS011;31495;42.740;22.908;2023-07-20T03:40:07;3.65;;;1.88;;
45792;SDS011;31495;42.740;22.908;2023-07-20T03:41:07;3.90;;;1.95;;
45792;SDS011;31495;42.740;22.908;2023-07-20T03:42:07;9.80;;;2.22;;
45792;SDS011;31495;42.740;22.908;2023-07-20T03:43:06;6.28;;;1.92;;
45792;SDS011;31495;42.740;22.908;2023-07-20T03:44:06;5.45;;;1.80;;
45792;SDS011;31495;42.740;22.908;2023-07-20T03:45:05;11.38;;;2.33;;
45792;SDS011;31495;42.740;22.908;2023-07-20T03:46:05;13.23;;;2.42;;
45792;SDS011;31495;42.740;22.908;2023-07-20T03:47:06;7.90;;;2.65;;
45792;SDS011;31495;42.740;22.908;2023-07-20T03:48:05;5.10;;;1.52;;
45792;SDS011;31495;42.740;22.908;2023-07-20T03:49:05;10.88;;;1.92;;
45792;SDS011;31495;42.740;22.908;2023-07-20T03:50:05;5.72;;;2.35;;
45792;SDS011;31495;42.740;22.908;2023-07-20T03:51:05;5.07;;;2.60;;
45792;SDS011;31495;42.740;22.908;2023-07-20T03:52:05;6.07;;;2.10;;
45792;SDS011;31495;42.740;22.908;2023-07-20T03:53:05;7.45;;;2.55;;
45792;SDS011;31495;42.740;22.908;2023-07-20T03:54:04;7.57;;;4.05;;
45792;SDS011;31495;42.740;22.908;2023-07-20T03:55:04;9.98;;;4.55;;
45792;SDS011;31495;42.740;22.908;2023-07-20T03:56:04;13.55;;;4.63;;
45792;SDS011;31495;42.740;22.908;2023-07-20T03:57:04;11.40;;;4.32;;
45792;SDS011;31495;42.740;22.908;2023-07-20T03:58:04;10.63;;;4.13;;
45792;SDS011;31495;42.740;22.908;2023-07-20T03:59:04;8.15;;;3.47;;
45792;SDS011;31495;42.740;22.908;2023-07-20T04:00:04;13.30;;;3.63;;
45792;SDS011;31495;42.740;22.908;2023-07-20T04:01:07;4.53;;;2.20;;
45792;SDS011;31495;42.740;22.908;2023-07-20T04:02:07;7.13;;;2.25;;
45792;SDS011;31495;42.740;22.908;2023-07-20T04:03:06;7.47;;;2.63;;
45792;SDS011;31495;42.740;22.908;2023-07-20T04:04:06;5.50;;;2.28;;
45792;SDS011;31495;42.740;22.908;2023-07-20T04:05:07;5.38;;;2.42;;
45792;SDS011;31495;42.740;22.908;2023-07-20T04:06:07;7.55;;;2.60;;
45792;SDS011;31495;42.740;22.908;2023-07-20T04:07:07;8.70;;;2.42;;
45792;SDS011;31495;42.740;22.908;2023-07-20T04:08:06;7.60;;;2.28;;
45792;SDS011;31495;42.740;22.908;2023-07-20T04:09:06;6.82;;;1.98;;
45792;SDS011;31495;42.740;22.908;2023-07-20T04:10:06;5.05;;;2.30;;
45792;SDS011;31495;42.740;22.908;2023-07-20T04:11:06;4.38;;;1.95;;
45792;SDS011;31495;42.740;22.908;2023-07-20T04:12:06;5.90;;;2.17;;
45792;SDS011;31495;42.740;22.908;2023-07-20T04:13:05;5.88;;;2.08;;
45792;SDS011;31495;42.740;22.908;2023-07-20T04:14:05;3.35;;;1.92;;
45792;SDS011;31495;42.740;22.908;2023-07-20T04:15:05;5.90;;;2.85;;
45792;SDS011;31495;42.740;22.908;2023-07-20T04:16:05;8.05;;;2.63;;
45792;SDS011;31495;42.740;22.908;2023-07-20T04:17:05;7.47;;;2.55;;
45792;SDS011;31495;42.740;22.908;2023-07-20T04:18:04;5.55;;;2.05;;
45792;SDS011;31495;42.740;22.908;2023-07-20T04:19:04;8.02;;;2.65;;
45792;SDS011;31495;42.740;22.908;2023-07-20T04:20:04;7.47;;;2.85;;
45792;SDS011;31495;42.740;22.908;2023-07-20T04:21:07;3.80;;;1.67;;
45792;SDS011;31495;42.740;22.908;2023-07-20T04:22:07;6.28;;;1.70;;
45792;SDS011;31495;42.740;22.908;2023-07-20T04:23:07;7.32;;;2.47;;
45792;SDS011;31495;42.740;22.908;2023-07-20T04:24:07;7.72;;;2.40;;
45792;SDS011;31495;42.740;22.908;2023-07-20T04:25:06;7.80;;;2.28;;
45792;SDS011;31495;42.740;22.908;2023-07-20T04:26:07;9.95;;;2.45;;
45792;SDS011;31495;42.740;22.908;2023-07-20T04:27:07;5.60;;;1.98;;
45792;SDS011;31495;42.740;22.908;2023-07-20T04:28:06;6.78;;;2.40;;
45792;SDS011;31495;42.740;22.908;2023-07-20T04:29:09;5.75;;;2.00;;
45792;SDS011;31495;42.740;22.908;2023-07-20T04:30:09;9.85;;;2.33;;
45792;SDS011;31495;42.740;22.908;2023-07-20T04:31:14;6.88;;;2.00;;
45792;SDS011;31495;42.740;22.908;2023-07-20T04:32:15;8.30;;;2.70;;
45792;SDS011;31495;42.740;22.908;2023-07-20T04:33:14;16.98;;;2.53;;
45792;SDS011;31495;42.740;22.908;2023-07-20T04:34:14;6.00;;;2.72;;
45792;SDS011;31495;42.740;22.908;2023-07-20T04:35:17;6.95;;;1.92;;
45792;SDS011;31495;42.740;22.908;2023-07-20T04:36:37;6.00;;;2.13;;
45792;SDS011;31495;42.740;22.908;2023-07-20T04:37:36;8.52;;;2.38;;
45792;SDS011;31495;42.740;22.908;2023-07-20T04:38:35;8.10;;;1.95;;
45792;SDS011;31495;42.740;22.908;2023-07-20T04:39:35;4.43;;;2.25;;
45792;SDS011;31495;42.740;22.908;2023-07-20T04:40:34;10.90;;;2.53;;
45792;SDS011;31495;42.740;22.908;2023-07-20T04:41:34;5.35;;;2.60;;
45792;SDS011;31495;42.740;22.908;2023-07-20T04:42:33;7.88;;;2.40;;
45792;SDS011;31495;42.740;22.908;2023-07-20T04:43:33;4.60;;;2.58;;
45792;SDS011;31495;42.740;22.908;2023-07-20T04:44:32;6.30;;;2.15;;
45792;SDS011;31495;42.740;22.908;2023-07-20T04:45:31;23.00;;;3.35;;
45792;SDS011;31495;42.740;22.908;2023-07-20T04:46:31;7.40;;;3.05;;
45792;SDS011;31495;42.740;22.908;2023-07-20T04:47:31;7.28;;;2.65;;
45792;SDS011;31495;42.740;22.908;2023-07-20T04:48:30;6.15;;;1.73;;
45792;SDS011;31495;42.740;22.908;2023-07-20T04:49:29;8.55;;;2.45;;
45792;SDS011;31495;42.740;22.908;2023-07-20T04:50:29;7.18;;;2.20;;
45792;SDS011;31495;42.740;22.908;2023-07-20T04:51:28;5.05;;;2.38;;
45792;SDS011;31495;42.740;22.908;2023-07-20T04:52:29;8.35;;;2.78;;
45792;SDS011;31495;42.740;22.908;2023-07-20T04:53:29;11.82;;;2.13;;
45792;SDS011;31495;42.740;22.908;2023-07-20T04:54:29;3.85;;;2.00;;
45792;SDS011;31495;42.740;22.908;2023-07-20T04:55:29;6.15;;;1.95;;
45792;SDS011;31495;42.740;22.908;2023-07-20T04:56:28;7.38;;;2.72;;
45792;SDS011;31495;42.740;22.908;2023-07-20T04:57:28;10.60;;;2.50;;
45792;SDS011;31495;42.740;22.908;2023-07-20T04:58:27;5.55;;;1.85;;
45792;SDS011;31495;42.740;22.908;2023-07-20T04:59:27;4.78;;;2.55;;
45792;SDS011;31495;42.740;22.908;2023-07-20T05:00:26;6.45;;;1.88;;
45792;SDS011;31495;42.740;22.908;2023-07-20T05:01:25;9.55;;;2.53;;
45792;SDS011;31495;42.740;22.908;2023-07-20T05:02:25;7.15;;;2.67;;
45792;SDS011;31495;42.740;22.908;2023-07-20T05:03:25;7.45;;;2.97;;
45792;SDS011;31495;42.740;22.908;2023-07-20T05:04:24;4.28;;;1.90;;
45792;SDS011;31495;42.740;22.908;2023-07-20T05:05:24;5.57;;;2.38;;
45792;SDS011;31495;42.740;22.908;2023-07-20T05:06:23;9.35;;;2.53;;
45792;SDS011;31495;42.740;22.908;2023-07-20T05:07:23;7.72;;;2.72;;
45792;SDS011;31495;42.740;22.908;2023-07-20T05:08:22;6.07;;;2.53;;
45792;SDS011;31495;42.740;22.908;2023-07-20T05:09:21;5.28;;;2.03;;
45792;SDS011;31495;42.740;22.908;2023-07-20T05:10:21;7.35;;;2.67;;
45792;SDS011;31495;42.740;22.908;2023-07-20T05:11:20;5.72;;;2.42;;
45792;SDS011;31495;42.740;22.908;2023-07-20T05:12:20;5.93;;;3.10;;
45792;SDS011;31495;42.740;22.908;2023-07-20T05:13:20;7.95;;;3.95;;
45792;SDS011;31495;42.740;22.908;2023-07-20T05:14:19;8.07;;;3.15;;
45792;SDS011;31495;42.740;22.908;2023-07-20T05:15:18;10.15;;;3.92;;
45792;SDS011;31495;42.740;22.908;2023-07-20T05:16:18;12.82;;;3.83;;
45792;SDS011;31495;42.740;22.908;2023-07-20T05:17:17;7.60;;;2.95;;
45792;SDS011;31495;42.740;22.908;2023-07-20T05:18:17;10.57;;;3.33;;
45792;SDS011;31495;42.740;22.908;2023-07-20T05:19:19;7.78;;;2.97;;
45792;SDS011;31495;42.740;22.908;2023-07-20T05:20:18;5.75;;;3.05;;
45792;SDS011;31495;42.740;22.908;2023-07-20T05:21:19;5.13;;;3.20;;
45792;SDS011;31495;42.740;22.908;2023-07-20T05:22:18;10.68;;;2.67;;
45792;SDS011;31495;42.740;22.908;2023-07-20T05:23:18;8.48;;;3.20;;
45792;SDS011;31495;42.740;22.908;2023-07-20T05:24:19;13.80;;;3.83;;
45792;SDS011;31495;42.740;22.908;2023-07-20T05:25:18;8.35;;;3.55;;
45792;SDS011;31495;42.740;22.908;2023-07-20T05:26:18;10.70;;;3.63;;
45792;SDS011;31495;42.740;22.908;2023-07-20T05:27:17;9.50;;;3.60;;
45792;SDS011;31495;42.740;22.908;2023-07-20T05:28:17;10.23;;;3.85;;
45792;SDS011;31495;42.740;22.908;2023-07-20T05:29:16;9.27;;;3.15;;
45792;SDS011;31495;42.740;22.908;2023-07-20T05:30:16;8.15;;;2.85;;
45792;SDS011;31495;42.740;22.908;2023-07-20T05:31:15;9.93;;;3.60;;
45792;SDS011;31495;42.740;22.908;2023-07-20T05:32:14;11.07;;;3.40;;
45792;SDS011;31495;42.740;22.908;2023-07-20T05:33:14;5.38;;;3.00;;
45792;SDS011;31495;42.740;22.908;2023-07-20T05:34:13;12.35;;;3.38;;
45792;SDS011;31495;42.740;22.908;2023-07-20T05:35:13;8.77;;;3.40;;
45792;SDS011;31495;42.740;22.908;2023-07-20T05:36:13;7.63;;;3.10;;
45792;SDS011;31495;42.740;22.908;2023-07-20T05:37:12;7.28;;;3.22;;
45792;SDS011;31495;42.740;22.908;2023-07-20T05:38:12;7.45;;;3.55;;
45792;SDS011;31495;42.740;22.908;2023-07-20T05:39:11;7.70;;;3.00;;
45792;SDS011;31495;42.740;22.908;2023-07-20T05:40:11;11.18;;;3.65;;
45792;SDS011;31495;42.740;22.908;2023-07-20T05:41:11;9.57;;;3.35;;
45792;SDS011;31495;42.740;22.908;2023-07-20T05:42:11;6.70;;;3.17;;
45792;SDS011;31495;42.740;22.908;2023-07-20T05:43:10;11.00;;;3.03;;
45792;SDS011;31495;42.740;22.908;2023-07-20T05:44:10;8.27;;;3.63;;
45792;SDS011;31495;42.740;22.908;2023-07-20T05:45:10;8.57;;;3.28;;
45792;SDS011;31495;42.740;22.908;2023-07-20T05:46:09;7.97;;;3.85;;
45792;SDS011;31495;42.740;22.908;2023-07-20T05:47:09;8.95;;;4.20;;
45792;SDS011;31495;42.740;22.908;2023-07-20T05:48:08;9.80;;;3.40;;
45792;SDS011;31495;42.740;22.908;2023-07-20T05:49:11;8.98;;;3.80;;
45792;SDS011;31495;42.740;22.908;2023-07-20T05:50:11;4.35;;;2.72;;
45792;SDS011;31495;42.740;22.908;2023-07-20T05:51:10;6.95;;;3.00;;
45792;SDS011;31495;42.740;22.908;2023-07-20T05:52:10;8.15;;;3.20;;
45792;SDS011;31495;42.740;22.908;2023-07-20T05:53:09;5.15;;;3.15;;
45792;SDS011;31495;42.740;22.908;2023-07-20T05:54:09;9.70;;;3.05;;
45792;SDS011;31495;42.740;22.908;2023-07-20T05:55:08;7.10;;;3.35;;
45792;SDS011;31495;42.740;22.908;2023-07-20T05:56:07;6.68;;;3.05;;
45792;SDS011;31495;42.740;22.908;2023-07-20T05:57:10;10.07;;;2.60;;
45792;SDS011;31495;42.740;22.908;2023-07-20T05:58:10;6.55;;;2.90;;
45792;SDS011;31495;42.740;22.908;2023-07-20T05:59:09;8.13;;;3.90;;
45792;SDS011;31495;42.740;22.908;2023-07-20T06:00:08;14.65;;;3.65;;
45792;SDS011;31495;42.740;22.908;2023-07-20T06:01:08;11.07;;;3.55;;
45792;SDS011;31495;42.740;22.908;2023-07-20T06:02:08;6.00;;;2.80;;
45792;SDS011;31495;42.740;22.908;2023-07-20T06:03:07;9.07;;;2.97;;
45792;SDS011;31495;42.740;22.908;2023-07-20T06:04:07;7.85;;;3.53;;
45792;SDS011;31495;42.740;22.908;2023-07-20T06:05:07;10.95;;;2.17;;
45792;SDS011;31495;42.740;22.908;2023-07-20T06:06:09;9.85;;;3.15;;
45792;SDS011;31495;42.740;22.908;2023-07-20T06:07:11;7.65;;;3.00;;